Gaz Palmyra — 3FCO4 — position and weather

sailwx.info

Track history (hours):
 
Tides and Currents Weather Stations Pressure Air Temp Water Temp Dewpoint Dewpoint Depression Visibility Wind Speed Wind Dir Waves Ship Positions

Gaz Palmyra

Last reported at 2014-Aug-20 06:14 UTC. Time now 2014-Aug-20 06:56 UTC.
Position N 35°51' W 000°17'.

Length 137 m; draft 6.3 m.

Type: Ship (hazmat cat C). MMSI: 353247000.

Date/timePositionNaut miles runAvg speedWind from/ knotsBaromVisibWave heightAir tempDewpointWater temp
2014-Aug-20 06:14N 35°51' W 000°17'11 0.4
2014-Aug-19 05:31N 35°59' W 000°08'30 5.9
2014-Aug-19 00:29N 36°19' E 000°18'45 8.5
2014-Aug-18 19:11N 36°45' E 001°04'15 8.9
2014-Aug-18 17:33N 36°47' E 001°22'1212.2
2014-Aug-18 16:33N 36°47' E 001°37'1212.3
2014-Aug-18 15:33N 36°49' E 001°52'2613.0
2014-Aug-18 13:33N 36°50' E 002°25'1414.4
2014-Aug-18 12:33N 36°52' E 002°42'1414.1
2014-Aug-18 11:33N 36°53' E 002°60'8 8.3
2014-Aug-18 10:33N 36°46' E 003°05'  
2014-Aug-13 10:29N 36°47' E 003°06'0 0.0
2014-Aug-13 08:15N 36°47' E 003°06'0 0.0
2014-Aug-12 07:21N 36°47' E 003°06'0 0.0
2014-Aug-12 04:33N 36°47' E 003°06'0 0.0
2014-Aug-12 03:09N 36°47' E 003°06'0 0.0
2014-Aug-12 02:15N 36°47' E 003°06'0 0.1
2014-Aug-12 00:33N 36°47' E 003°06'0 0.0
2014-Aug-11 23:27N 36°47' E 003°06'0 0.0
2014-Aug-11 21:33N 36°47' E 003°06'0 0.0
2014-Aug-11 20:33N 36°47' E 003°06'0 0.0
2014-Aug-11 19:24N 36°47' E 003°06'0 0.0
2014-Aug-11 18:33N 36°47' E 003°06'0 0.0
2014-Aug-11 17:30N 36°47' E 003°06'0 0.0
2014-Aug-11 15:33N 36°47' E 003°06'0 0.0
2014-Aug-11 14:33N 36°47' E 003°06'0 0.0
2014-Aug-11 12:21N 36°47' E 003°06'0 0.1
2014-Aug-11 10:34N 36°47' E 003°06'9 8.2
2014-Aug-11 09:31N 36°53' E 002°59'2713.5
2014-Aug-11 07:33N 36°50' E 002°26'1312.5
2014-Aug-11 06:31N 36°50' E 002°10'1212.6
2014-Aug-11 05:33N 36°49' E 001°55'1313.4
2014-Aug-11 04:33N 36°48' E 001°38'1414.2
2014-Aug-11 03:33N 36°46' E 001°20'1414.1
2014-Aug-11 02:33N 36°45' E 001°03'1413.5
2014-Aug-11 01:33N 36°39' E 000°48'1413.8
2014-Aug-11 00:33N 36°32' E 000°33'1313.5
2014-Aug-10 23:33N 36°22' E 000°21'1313.5
2014-Aug-10 22:33N 36°13' E 000°09'1413.6
2014-Aug-10 21:33N 36°03' W 000°02'1313.1
2014-Aug-10 20:33N 35°53' W 000°13'5 1.0
2014-Aug-10 16:05N 35°51' W 000°18'  
Track history (hours):
 
Tides and Currents Weather Stations Pressure Air Temp Water Temp Dewpoint Dewpoint Depression Visibility Wind Speed Wind Dir Waves Ship Positions

Gaz Palmyra

Last reported at 2014-Aug-20 06:14 UTC. Time now 2014-Aug-20 06:56 UTC.
Position N 35°51' W 000°17'.

Length 137 m; draft 6.3 m.

Type: Ship (hazmat cat C). MMSI: 353247000.

Date/timePositionNaut miles runAvg speedWind from/ knotsBaromVisibWave heightAir tempDewpointWater temp
2014-Aug-20 06:14N 35°51' W 000°17'11 0.4
2014-Aug-19 05:31N 35°59' W 000°08'30 5.9
2014-Aug-19 00:29N 36°19' E 000°18'45 8.5
2014-Aug-18 19:11N 36°45' E 001°04'15 8.9
2014-Aug-18 17:33N 36°47' E 001°22'1212.2
2014-Aug-18 16:33N 36°47' E 001°37'1212.3
2014-Aug-18 15:33N 36°49' E 001°52'2613.0
2014-Aug-18 13:33N 36°50' E 002°25'1414.4
2014-Aug-18 12:33N 36°52' E 002°42'1414.1
2014-Aug-18 11:33N 36°53' E 002°60'8 8.3
2014-Aug-18 10:33N 36°46' E 003°05'  
2014-Aug-13 10:29N 36°47' E 003°06'0 0.0
2014-Aug-13 08:15N 36°47' E 003°06'0 0.0
2014-Aug-12 07:21N 36°47' E 003°06'0 0.0
2014-Aug-12 04:33N 36°47' E 003°06'0 0.0
2014-Aug-12 03:09N 36°47' E 003°06'0 0.0
2014-Aug-12 02:15N 36°47' E 003°06'0 0.1
2014-Aug-12 00:33N 36°47' E 003°06'0 0.0
2014-Aug-11 23:27N 36°47' E 003°06'0 0.0
2014-Aug-11 21:33N 36°47' E 003°06'0 0.0
2014-Aug-11 20:33N 36°47' E 003°06'0 0.0
2014-Aug-11 19:24N 36°47' E 003°06'0 0.0
2014-Aug-11 18:33N 36°47' E 003°06'0 0.0
2014-Aug-11 17:30N 36°47' E 003°06'0 0.0
2014-Aug-11 15:33N 36°47' E 003°06'0 0.0
2014-Aug-11 14:33N 36°47' E 003°06'0 0.0
2014-Aug-11 12:21N 36°47' E 003°06'0 0.1
2014-Aug-11 10:34N 36°47' E 003°06'9 8.2
2014-Aug-11 09:31N 36°53' E 002°59'2713.5
2014-Aug-11 07:33N 36°50' E 002°26'1312.5
2014-Aug-11 06:31N 36°50' E 002°10'1212.6
2014-Aug-11 05:33N 36°49' E 001°55'1313.4
2014-Aug-11 04:33N 36°48' E 001°38'1414.2
2014-Aug-11 03:33N 36°46' E 001°20'1414.1
2014-Aug-11 02:33N 36°45' E 001°03'1413.5
2014-Aug-11 01:33N 36°39' E 000°48'1413.8
2014-Aug-11 00:33N 36°32' E 000°33'1313.5
2014-Aug-10 23:33N 36°22' E 000°21'1313.5
2014-Aug-10 22:33N 36°13' E 000°09'1413.6
2014-Aug-10 21:33N 36°03' W 000°02'1313.1
2014-Aug-10 20:33N 35°53' W 000°13'5 1.0
2014-Aug-10 16:05N 35°51' W 000°18'  

Dump ship's entire track history